Time;durP1;ratioP1;P1;durP2;ratioP2;P2;SDS_P1;SDS_P2;PMS_P1;PMS_P2;Temp;Humidity;BMP_temperature;BMP_pressure;BME280_temperature;BME280_humidity;BME280_pressure;Samples;Min_cycle;Max_cycle;Signal;HPM_P1;HPM_P2
2024/01/30 00:01:24;;;;;;;;;;;6.00;99.90;;;;;;4935333;28;19929;-67
2024/01/30 00:03:50;;;;;;;;;;;6.00;99.90;;;;;;4975539;28;20592;-67
2024/01/30 00:06:22;;;;;;;;;;;6.00;99.90;;;;;;4932947;28;19930;-67
2024/01/30 00:08:48;;;;;;;;;;;6.00;99.90;;;;;;4971720;28;19944;-67
2024/01/30 00:11:15;;;;;;;;;;;6.00;99.90;;;;;;4932323;28;19927;-66
2024/01/30 00:13:41;;;;;;;;;;;6.00;99.90;;;;;;4960655;28;19929;-66
2024/01/30 00:16:08;;;;;;;;;;;6.00;99.90;;;;;;4936640;28;20608;-66
2024/01/30 00:18:34;;;;;;;;;;;6.00;99.90;;;;;;4977851;28;20301;-66
2024/01/30 00:21:00;;;;;;;;;;;6.10;99.90;;;;;;4933123;28;19930;-65
2024/01/30 00:23:26;;;;;;;;;;;6.10;99.90;;;;;;4945558;28;19930;-65
2024/01/30 00:25:52;;;;;;;;;;;6.10;99.90;;;;;;4933053;28;19925;-66
2024/01/30 00:28:17;;;;;;;;;;;6.10;99.90;;;;;;4981228;28;19936;-65
2024/01/30 00:30:44;;;;;;;;;;;6.10;99.90;;;;;;4947810;28;20681;-66
2024/01/30 00:33:09;;;;;;;;;;;6.00;99.90;;;;;;4931079;28;19936;-65
2024/01/30 00:35:35;;;;;;;;;;;6.00;99.90;;;;;;4958595;28;19925;-66
2024/01/30 00:38:01;;;;;;;;;;;6.00;99.90;;;;;;4952444;28;20556;-66
2024/01/30 00:40:27;;;;;;;;;;;5.90;99.90;;;;;;4944166;28;20423;-66
2024/01/30 00:42:53;;;;;;;;;;;5.90;99.90;;;;;;4932700;28;19932;-67
2024/01/30 00:45:19;;;;;;;;;;;5.90;99.90;;;;;;4959975;28;19988;-65
2024/01/30 00:47:45;;;;;;;;;;;5.90;99.90;;;;;;4928959;28;19933;-66
2024/01/30 00:50:11;;;;;;;;;;;5.80;99.90;;;;;;4958237;28;20523;-67
2024/01/30 00:52:38;;;;;;;;;;;5.80;99.90;;;;;;4937973;28;20526;-65
2024/01/30 00:55:05;;;;;;;;;;;5.80;99.90;;;;;;4963047;28;19974;-66
2024/01/30 00:57:30;;;;;;;;;;;5.80;99.90;;;;;;4930313;28;19925;-66
2024/01/30 00:59:57;;;;;;;;;;;5.80;99.90;;;;;;4957280;28;19948;-66
2024/01/30 01:02:22;;;;;;;;;;;5.90;99.90;;;;;;4931162;28;20169;-66
2024/01/30 01:04:48;;;;;;;;;;;6.00;99.90;;;;;;4958343;28;20612;-66
2024/01/30 01:07:14;;;;;;;;;;;6.00;99.90;;;;;;4931123;28;19992;-66
2024/01/30 01:09:40;;;;;;;;;;;5.90;99.90;;;;;;4951259;28;19952;-65
2024/01/30 01:12:06;;;;;;;;;;;5.90;99.90;;;;;;4946965;28;20490;-66
2024/01/30 01:14:32;;;;;;;;;;;5.90;99.90;;;;;;4966555;28;19930;-66
2024/01/30 01:16:58;;;;;;;;;;;5.90;99.90;;;;;;4939969;28;19925;-65
2024/01/30 01:19:24;;;;;;;;;;;5.90;99.90;;;;;;4968095;28;20408;-68
2024/01/30 01:21:50;;;;;;;;;;;6.00;99.90;;;;;;4930959;28;19925;-65
2024/01/30 01:24:16;;;;;;;;;;;6.00;99.90;;;;;;4959633;28;20712;-66
2024/01/30 01:26:41;;;;;;;;;;;6.10;99.90;;;;;;4943872;28;19944;-65
2024/01/30 01:29:11;;;;;;;;;;;6.00;99.90;;;;;;4981251;28;19926;-65
2024/01/30 01:31:45;;;;;;;;;;;6.10;99.90;;;;;;4948097;28;19936;-66
2024/01/30 01:34:12;;;;;;;;;;;6.10;99.90;;;;;;4961498;28;20601;-67
2024/01/30 01:36:38;;;;;;;;;;;6.10;99.90;;;;;;4933116;28;19925;-67
2024/01/30 01:39:04;;;;;;;;;;;6.10;99.90;;;;;;4970075;28;20549;-66
2024/01/30 01:41:31;;;;;;;;;;;6.10;99.90;;;;;;4927942;28;19929;-66
2024/01/30 01:43:57;;;;;;;;;;;6.00;99.90;;;;;;4950065;28;19933;-66
2024/01/30 01:46:23;;;;;;;;;;;6.10;99.90;;;;;;4931268;28;19925;-65
2024/01/30 01:48:49;;;;;;;;;;;6.10;99.90;;;;;;4967773;28;19945;-66
2024/01/30 01:51:15;;;;;;;;;;;6.00;99.90;;;;;;4929185;28;19936;-66
2024/01/30 01:53:41;;;;;;;;;;;6.10;99.90;;;;;;4959245;28;19933;-68
2024/01/30 01:56:07;;;;;;;;;;;6.00;99.90;;;;;;4932346;28;20421;-67
2024/01/30 01:58:33;;;;;;;;;;;6.10;99.90;;;;;;4960273;28;20573;-67
2024/01/30 02:00:59;;;;;;;;;;;6.10;99.90;;;;;;4928928;28;19929;-68
2024/01/30 02:03:25;;;;;;;;;;;6.10;99.90;;;;;;4958353;28;21089;-66
2024/01/30 02:05:51;;;;;;;;;;;6.10;99.90;;;;;;4929306;28;19925;-66
2024/01/30 02:08:17;;;;;;;;;;;6.10;99.90;;;;;;4980947;28;19925;-65
2024/01/30 02:10:43;;;;;;;;;;;6.00;99.90;;;;;;4950137;28;19925;-67
2024/01/30 02:13:09;;;;;;;;;;;6.00;99.90;;;;;;4964800;28;20709;-67
2024/01/30 02:15:35;;;;;;;;;;;6.00;99.90;;;;;;4957952;28;19937;-66
2024/01/30 02:18:01;;;;;;;;;;;6.00;99.90;;;;;;4934716;28;20870;-66
2024/01/30 02:20:29;;;;;;;;;;;6.00;99.90;;;;;;4973528;28;19976;-67
2024/01/30 02:22:55;;;;;;;;;;;6.10;99.90;;;;;;4950010;28;19925;-65
2024/01/30 02:25:30;;;;;;;;;;;6.10;99.90;;;;;;4972090;28;19930;-66
2024/01/30 02:27:56;;;;;;;;;;;6.10;99.90;;;;;;4954305;28;19932;-67
2024/01/30 02:30:21;;;;;;;;;;;6.00;99.90;;;;;;4962296;28;19926;-65
2024/01/30 02:32:47;;;;;;;;;;;6.00;99.90;;;;;;4940686;28;19933;-67
2024/01/30 02:35:13;;;;;;;;;;;6.10;99.90;;;;;;4963765;28;20292;-66
2024/01/30 02:37:39;;;;;;;;;;;6.10;99.90;;;;;;4954873;28;19925;-67
2024/01/30 02:40:05;;;;;;;;;;;6.10;99.90;;;;;;4960985;28;19937;-66
2024/01/30 02:42:31;;;;;;;;;;;6.10;99.90;;;;;;4933372;28;20583;-66
2024/01/30 02:44:57;;;;;;;;;;;6.10;99.90;;;;;;4963019;28;19933;-67
2024/01/30 02:47:23;;;;;;;;;;;6.10;99.90;;;;;;4950158;28;19925;-66
2024/01/30 02:49:49;;;;;;;;;;;6.10;99.90;;;;;;4956674;28;19932;-66
2024/01/30 02:52:15;;;;;;;;;;;6.10;99.90;;;;;;4948907;28;20026;-66
2024/01/30 02:54:41;;;;;;;;;;;6.10;99.90;;;;;;4969179;28;20614;-67
2024/01/30 02:57:07;;;;;;;;;;;6.10;99.90;;;;;;4937478;28;20003;-66
2024/01/30 02:59:35;;;;;;;;;;;6.10;99.90;;;;;;4969975;28;19936;-67
2024/01/30 03:02:01;;;;;;;;;;;6.10;99.90;;;;;;4943672;28;19925;-67
2024/01/30 03:04:29;;;;;;;;;;;6.10;99.90;;;;;;4966496;28;19925;-66
2024/01/30 03:06:55;;;;;;;;;;;6.10;99.90;;;;;;4945126;28;19925;-67
2024/01/30 03:09:21;;;;;;;;;;;6.10;99.90;;;;;;4949103;28;19933;-66
2024/01/30 03:11:47;;;;;;;;;;;6.10;99.90;;;;;;4944140;28;19947;-66
2024/01/30 03:14:13;;;;;;;;;;;6.10;99.90;;;;;;4973638;28;19936;-66
2024/01/30 03:16:39;;;;;;;;;;;6.10;99.90;;;;;;4943255;28;19939;-66
2024/01/30 03:19:07;;;;;;;;;;;6.10;99.90;;;;;;4978960;28;19929;-65
2024/01/30 03:21:33;;;;;;;;;;;6.10;99.90;;;;;;4967299;28;19935;-66
2024/01/30 03:23:59;;;;;;;;;;;6.00;99.90;;;;;;5002077;28;19925;-66
2024/01/30 03:26:25;;;;;;;;;;;6.00;99.90;;;;;;4964519;28;19935;-66
2024/01/30 03:28:51;;;;;;;;;;;6.10;99.90;;;;;;4969358;28;19999;-66
2024/01/30 03:31:17;;;;;;;;;;;6.10;99.90;;;;;;4931713;28;20004;-66
2024/01/30 03:33:43;;;;;;;;;;;6.10;99.90;;;;;;4959949;28;19940;-67
2024/01/30 03:36:09;;;;;;;;;;;6.10;99.90;;;;;;4949935;28;19929;-66
2024/01/30 03:38:37;;;;;;;;;;;6.20;99.90;;;;;;4977352;28;20303;-66
2024/01/30 03:41:03;;;;;;;;;;;6.20;99.90;;;;;;4935582;28;19931;-65
2024/01/30 03:43:28;;;;;;;;;;;6.20;99.90;;;;;;4964236;28;19925;-67
2024/01/30 03:45:54;;;;;;;;;;;6.10;99.90;;;;;;4930702;28;19933;-66
2024/01/30 03:48:21;;;;;;;;;;;6.20;99.90;;;;;;4965549;28;20598;-65
2024/01/30 03:50:46;;;;;;;;;;;6.20;99.90;;;;;;4951058;28;19926;-65
2024/01/30 03:53:12;;;;;;;;;;;6.20;99.90;;;;;;4966676;28;19953;-65
2024/01/30 03:55:38;;;;;;;;;;;6.20;99.90;;;;;;4962709;28;20494;-65
2024/01/30 03:58:04;;;;;;;;;;;6.20;99.90;;;;;;4926346;28;19940;-65
2024/01/30 04:00:30;;;;;;;;;;;6.30;99.90;;;;;;4975679;28;20380;-65
2024/01/30 04:02:56;;;;;;;;;;;6.30;99.90;;;;;;4952919;28;19925;-67
2024/01/30 04:05:22;;;;;;;;;;;6.40;99.90;;;;;;4962158;28;20009;-66
2024/01/30 04:07:48;;;;;;;;;;;6.40;99.90;;;;;;4918916;28;20032;-66
2024/01/30 04:10:14;;;;;;;;;;;6.40;99.90;;;;;;4959640;28;19925;-66
2024/01/30 04:12:39;;;;;;;;;;;6.40;99.90;;;;;;4939365;28;19928;-66
2024/01/30 04:15:05;;;;;;;;;;;6.50;99.90;;;;;;4962368;28;19926;-66
2024/01/30 04:17:32;;;;;;;;;;;6.50;99.90;;;;;;4928355;28;19929;-66
2024/01/30 04:19:58;;;;;;;;;;;6.50;99.90;;;;;;4958404;28;20582;-66
2024/01/30 04:22:24;;;;;;;;;;;6.60;99.90;;;;;;4955262;28;20002;-66
2024/01/30 04:24:50;;;;;;;;;;;6.60;99.90;;;;;;4964594;28;19936;-67
2024/01/30 04:27:16;;;;;;;;;;;6.60;99.90;;;;;;4949802;28;20123;-66
2024/01/30 04:29:42;;;;;;;;;;;6.60;99.90;;;;;;4966692;28;19932;-66
2024/01/30 04:32:09;;;;;;;;;;;6.60;99.90;;;;;;4920305;28;19925;-66
2024/01/30 04:34:35;;;;;;;;;;;6.60;99.90;;;;;;4960362;28;19933;-68
2024/01/30 04:37:01;;;;;;;;;;;6.60;99.90;;;;;;4919760;28;19926;-67
2024/01/30 04:39:27;;;;;;;;;;;6.70;99.90;;;;;;4937146;28;19925;-66
2024/01/30 04:41:53;;;;;;;;;;;6.70;99.90;;;;;;4943109;28;21119;-66
2024/01/30 04:44:19;;;;;;;;;;;6.70;99.90;;;;;;4960375;28;20294;-66
2024/01/30 04:46:45;;;;;;;;;;;6.70;99.90;;;;;;4936881;28;19929;-66
2024/01/30 04:49:11;;;;;;;;;;;6.70;99.90;;;;;;4970473;28;20449;-67
2024/01/30 04:51:37;;;;;;;;;;;6.70;99.90;;;;;;4931905;28;19929;-66
2024/01/30 04:54:03;;;;;;;;;;;6.70;99.90;;;;;;4946516;28;19930;-66
2024/01/30 04:56:29;;;;;;;;;;;6.80;99.90;;;;;;4908884;28;20460;-67
2024/01/30 04:58:54;;;;;;;;;;;6.80;99.90;;;;;;4939973;28;19925;-66
2024/01/30 05:01:20;;;;;;;;;;;6.80;99.90;;;;;;4921291;28;20560;-67
2024/01/30 05:03:46;;;;;;;;;;;6.80;99.90;;;;;;4971730;28;19939;-66
2024/01/30 05:06:12;;;;;;;;;;;6.80;99.90;;;;;;4929544;28;19936;-67
2024/01/30 05:08:38;;;;;;;;;;;6.80;99.90;;;;;;4972266;28;20388;-66
2024/01/30 05:11:05;;;;;;;;;;;6.80;99.90;;;;;;4929928;28;19935;-66
2024/01/30 05:13:31;;;;;;;;;;;6.80;99.90;;;;;;4944084;28;19930;-66
2024/01/30 05:15:57;;;;;;;;;;;6.80;99.90;;;;;;4912906;28;19926;-67
2024/01/30 05:18:23;;;;;;;;;;;6.80;99.90;;;;;;4960218;28;19964;-66
2024/01/30 05:20:52;;;;;;;;;;;6.80;99.90;;;;;;4911415;28;19926;-66
2024/01/30 05:23:18;;;;;;;;;;;6.90;99.90;;;;;;4972380;28;19929;-66
2024/01/30 05:25:44;;;;;;;;;;;7.00;99.90;;;;;;4948513;28;19948;-66
2024/01/30 05:28:10;;;;;;;;;;;7.00;99.90;;;;;;4963697;28;19925;-66
2024/01/30 05:30:36;;;;;;;;;;;7.00;99.90;;;;;;4957036;28;19930;-66
2024/01/30 05:33:02;;;;;;;;;;;7.00;99.90;;;;;;4933551;28;19932;-66
2024/01/30 05:35:28;;;;;;;;;;;7.00;99.90;;;;;;4938041;28;20428;-66
2024/01/30 05:37:54;;;;;;;;;;;7.00;99.90;;;;;;4904023;28;19949;-67
2024/01/30 05:40:20;;;;;;;;;;;7.00;99.90;;;;;;4940134;28;19930;-67
2024/01/30 05:42:46;;;;;;;;;;;7.10;99.90;;;;;;4907230;28;19929;-67
2024/01/30 05:45:12;;;;;;;;;;;7.10;99.90;;;;;;4939481;28;21218;-67
2024/01/30 05:47:37;;;;;;;;;;;7.10;99.90;;;;;;4939931;28;20047;-65
2024/01/30 05:50:03;;;;;;;;;;;7.10;99.90;;;;;;4957468;28;19926;-66
2024/01/30 05:52:29;;;;;;;;;;;7.20;99.90;;;;;;4935909;28;21160;-66
2024/01/30 05:54:55;;;;;;;;;;;7.20;99.90;;;;;;4943348;28;19934;-66
2024/01/30 05:57:21;;;;;;;;;;;7.20;99.90;;;;;;4926936;28;19937;-67
2024/01/30 05:59:47;;;;;;;;;;;7.20;99.90;;;;;;4939557;28;20468;-66
2024/01/30 06:02:13;;;;;;;;;;;7.30;99.90;;;;;;4904901;28;20833;-67
2024/01/30 06:04:39;;;;;;;;;;;7.30;99.90;;;;;;4941229;28;20478;-67
2024/01/30 06:07:06;;;;;;;;;;;7.30;99.90;;;;;;4926043;28;19968;-66
2024/01/30 06:09:32;;;;;;;;;;;7.30;99.90;;;;;;4946525;28;19933;-66
2024/01/30 06:11:58;;;;;;;;;;;7.30;99.90;;;;;;4929476;28;19925;-67
2024/01/30 06:14:24;;;;;;;;;;;7.30;99.90;;;;;;4957286;28;20011;-66
2024/01/30 06:16:49;;;;;;;;;;;7.30;99.90;;;;;;4943054;28;20012;-66
2024/01/30 06:19:15;;;;;;;;;;;7.30;99.90;;;;;;4966454;28;19930;-66
2024/01/30 06:21:41;;;;;;;;;;;7.30;99.90;;;;;;4937352;28;19951;-66
2024/01/30 06:24:07;;;;;;;;;;;7.30;99.90;;;;;;4967884;28;19936;-68
2024/01/30 06:26:34;;;;;;;;;;;7.30;99.90;;;;;;4931202;28;19929;-67
2024/01/30 06:29:00;;;;;;;;;;;7.30;99.90;;;;;;4961392;28;19937;-68
2024/01/30 06:31:25;;;;;;;;;;;7.30;99.90;;;;;;4937850;28;19929;-66
2024/01/30 06:33:51;;;;;;;;;;;7.30;99.90;;;;;;4970282;28;19933;-67
2024/01/30 06:36:17;;;;;;;;;;;7.30;99.90;;;;;;4927643;28;19940;-66
2024/01/30 06:38:43;;;;;;;;;;;7.30;99.90;;;;;;4956150;28;20483;-66
2024/01/30 06:41:09;;;;;;;;;;;7.30;99.90;;;;;;4942457;28;19931;-65
2024/01/30 06:43:35;;;;;;;;;;;7.30;99.90;;;;;;4988220;28;20001;-65
2024/01/30 06:46:01;;;;;;;;;;;7.30;99.90;;;;;;4952330;28;19941;-66
2024/01/30 06:48:27;;;;;;;;;;;7.30;99.90;;;;;;4959679;28;19933;-66
2024/01/30 06:50:53;;;;;;;;;;;7.30;99.90;;;;;;4946364;28;19925;-66
2024/01/30 06:53:19;;;;;;;;;;;7.40;99.90;;;;;;4962126;28;19964;-65
2024/01/30 06:55:45;;;;;;;;;;;7.40;99.90;;;;;;4940254;28;20741;-65
2024/01/30 06:58:11;;;;;;;;;;;7.40;99.90;;;;;;4944358;28;19926;-65
2024/01/30 07:00:37;;;;;;;;;;;7.40;99.90;;;;;;4959041;28;20431;-67
2024/01/30 07:03:03;;;;;;;;;;;7.40;99.90;;;;;;4932342;28;19925;-66
2024/01/30 07:05:29;;;;;;;;;;;7.40;99.90;;;;;;4959143;28;19929;-68
2024/01/30 07:07:55;;;;;;;;;;;7.40;99.90;;;;;;4951658;28;20396;-68
2024/01/30 07:10:21;;;;;;;;;;;7.50;99.90;;;;;;4961902;28;19933;-67
2024/01/30 07:12:47;;;;;;;;;;;7.50;99.90;;;;;;4955076;28;19925;-68
2024/01/30 07:15:16;;;;;;;;;;;7.50;99.90;;;;;;4965957;28;20612;-68
2024/01/30 07:17:42;;;;;;;;;;;7.50;99.90;;;;;;4955803;28;20501;-68
2024/01/30 07:20:09;;;;;;;;;;;7.60;99.90;;;;;;4965156;28;19989;-68
2024/01/30 07:22:35;;;;;;;;;;;7.60;99.90;;;;;;4938079;28;19933;-67
2024/01/30 07:25:00;;;;;;;;;;;7.60;99.90;;;;;;4963136;28;19925;-70
2024/01/30 07:27:26;;;;;;;;;;;7.60;99.90;;;;;;4954621;28;20449;-68
2024/01/30 07:29:52;;;;;;;;;;;7.70;99.90;;;;;;4964645;28;19932;-68
2024/01/30 07:32:18;;;;;;;;;;;7.70;99.90;;;;;;4934199;28;20480;-68
2024/01/30 07:34:44;;;;;;;;;;;7.70;99.90;;;;;;4963670;28;19934;-67
2024/01/30 07:37:12;;;;;;;;;;;7.70;99.90;;;;;;4924270;28;19939;-68
2024/01/30 07:39:38;;;;;;;;;;;7.70;99.90;;;;;;4962491;28;19929;-68
2024/01/30 07:42:04;;;;;;;;;;;7.80;99.90;;;;;;4927122;28;21019;-69
2024/01/30 07:44:30;;;;;;;;;;;7.80;99.90;;;;;;4963072;28;19929;-68
2024/01/30 07:46:57;;;;;;;;;;;7.80;99.90;;;;;;4948727;28;20419;-68
2024/01/30 07:49:22;;;;;;;;;;;7.80;99.90;;;;;;4973172;28;19925;-69
2024/01/30 07:51:48;;;;;;;;;;;7.80;99.90;;;;;;4926984;28;19936;-68
2024/01/30 07:54:14;;;;;;;;;;;7.80;99.90;;;;;;4963499;28;19929;-69
2024/01/30 07:56:41;;;;;;;;;;;7.80;99.90;;;;;;4933975;28;19933;-69
2024/01/30 07:59:11;;;;;;;;;;;7.80;99.90;;;;;;4966776;28;19925;-69
2024/01/30 08:01:38;;;;;;;;;;;7.90;99.90;;;;;;4933734;28;19936;-69
2024/01/30 08:04:04;;;;;;;;;;;7.90;99.90;;;;;;4938006;28;19925;-69
2024/01/30 08:06:30;;;;;;;;;;;7.90;99.90;;;;;;4935367;28;20670;-70
2024/01/30 08:08:57;;;;;;;;;;;7.90;99.90;;;;;;4968429;28;19936;-69
2024/01/30 08:11:26;;;;;;;;;;;7.90;99.90;;;;;;4936423;28;19926;-69
2024/01/30 08:13:53;;;;;;;;;;;7.90;99.90;;;;;;4965664;28;19929;-67
2024/01/30 08:16:18;;;;;;;;;;;7.90;99.90;;;;;;4935096;28;19925;-69
2024/01/30 08:18:45;;;;;;;;;;;8.00;99.90;;;;;;4977905;28;20021;-68
2024/01/30 08:21:10;;;;;;;;;;;8.10;99.90;;;;;;4933344;28;19926;-67
2024/01/30 08:23:38;;;;;;;;;;;8.10;99.90;;;;;;4934328;28;19929;-67
2024/01/30 08:26:04;;;;;;;;;;;8.10;99.90;;;;;;4931088;28;19934;-68
2024/01/30 08:28:30;;;;;;;;;;;8.10;99.90;;;;;;4961585;28;19929;-68
2024/01/30 08:30:56;;;;;;;;;;;8.20;99.90;;;;;;4936995;28;19929;-69
2024/01/30 08:33:22;;;;;;;;;;;8.20;99.90;;;;;;4979203;28;19929;-68
2024/01/30 08:35:48;;;;;;;;;;;8.20;99.90;;;;;;4933250;28;19925;-67
2024/01/30 08:38:14;;;;;;;;;;;8.20;99.90;;;;;;4960605;28;19932;-68
2024/01/30 08:40:40;;;;;;;;;;;8.20;99.90;;;;;;4961168;28;20399;-66
2024/01/30 08:43:06;;;;;;;;;;;8.20;99.90;;;;;;4918147;28;19929;-66
2024/01/30 08:45:32;;;;;;;;;;;8.20;99.90;;;;;;4959141;28;19925;-68
2024/01/30 08:47:58;;;;;;;;;;;8.20;99.90;;;;;;4919252;28;19925;-67
2024/01/30 08:50:24;;;;;;;;;;;8.30;99.90;;;;;;4961121;28;19925;-67
2024/01/30 08:52:50;;;;;;;;;;;8.30;99.90;;;;;;4920126;28;19948;-68
2024/01/30 08:55:16;;;;;;;;;;;8.40;99.90;;;;;;4959065;28;19934;-66
2024/01/30 08:57:42;;;;;;;;;;;8.40;99.90;;;;;;4939231;28;19925;-68
2024/01/30 09:00:09;;;;;;;;;;;8.40;99.90;;;;;;4961166;28;19932;-68
2024/01/30 09:02:35;;;;;;;;;;;8.50;99.90;;;;;;4932043;28;19925;-67
2024/01/30 09:05:00;;;;;;;;;;;8.60;99.90;;;;;;4959585;28;19964;-67
2024/01/30 09:07:26;;;;;;;;;;;8.60;99.90;;;;;;4951224;28;19929;-67
2024/01/30 09:09:52;;;;;;;;;;;8.60;99.90;;;;;;4961942;28;19925;-66
2024/01/30 09:12:18;;;;;;;;;;;8.70;99.90;;;;;;4948294;28;19936;-67
2024/01/30 09:14:44;;;;;;;;;;;8.70;99.90;;;;;;4968997;28;19934;-68
2024/01/30 09:17:10;;;;;;;;;;;8.70;99.90;;;;;;4944757;28;20002;-66
2024/01/30 09:19:36;;;;;;;;;;;8.70;99.90;;;;;;4963084;28;20522;-67
2024/01/30 09:22:02;;;;;;;;;;;8.80;99.90;;;;;;4947909;28;19925;-67
2024/01/30 09:24:28;;;;;;;;;;;8.80;99.90;;;;;;4962851;28;19925;-66
2024/01/30 09:26:54;;;;;;;;;;;8.80;99.90;;;;;;4947311;28;20031;-67
2024/01/30 09:29:21;;;;;;;;;;;8.90;99.90;;;;;;4969599;28;20616;-66
2024/01/30 09:31:46;;;;;;;;;;;8.90;99.90;;;;;;4931693;28;20944;-66
2024/01/30 09:34:13;;;;;;;;;;;9.00;99.90;;;;;;4960085;28;19936;-66
2024/01/30 09:36:39;;;;;;;;;;;9.00;99.90;;;;;;4930076;28;20491;-66
2024/01/30 09:39:06;;;;;;;;;;;9.10;99.90;;;;;;4960260;28;19926;-66
2024/01/30 09:41:33;;;;;;;;;;;9.10;99.90;;;;;;4933539;28;19926;-66
2024/01/30 09:43:59;;;;;;;;;;;9.10;99.90;;;;;;4952143;28;19929;-67
2024/01/30 09:46:27;;;;;;;;;;;9.20;99.90;;;;;;4934921;28;19925;-67
2024/01/30 09:48:53;;;;;;;;;;;9.40;99.90;;;;;;4975013;28;19972;-67
2024/01/30 09:51:20;;;;;;;;;;;9.40;99.90;;;;;;4938802;28;20563;-67
2024/01/30 09:53:46;;;;;;;;;;;9.50;99.90;;;;;;4965662;28;19929;-67
2024/01/30 09:56:12;;;;;;;;;;;9.50;99.90;;;;;;4932771;28;19999;-66
2024/01/30 09:58:39;;;;;;;;;;;9.60;99.90;;;;;;4964532;28;20942;-66
2024/01/30 10:01:06;;;;;;;;;;;9.60;99.90;;;;;;4932429;28;20802;-66
2024/01/30 10:03:31;;;;;;;;;;;9.70;99.90;;;;;;4962177;28;19929;-67
2024/01/30 10:05:58;;;;;;;;;;;9.70;99.90;;;;;;4935824;28;19926;-66
2024/01/30 10:08:26;;;;;;;;;;;9.70;99.90;;;;;;4980469;28;19922;-67
2024/01/30 10:10:51;;;;;;;;;;;9.70;99.90;;;;;;4932558;28;19925;-67
2024/01/30 10:13:18;;;;;;;;;;;9.80;99.90;;;;;;4982715;28;19969;-69
2024/01/30 10:15:44;;;;;;;;;;;9.90;99.90;;;;;;4947653;28;20908;-67
2024/01/30 10:18:11;;;;;;;;;;;9.90;99.90;;;;;;4949337;28;19925;-68
2024/01/30 10:20:37;;;;;;;;;;;10.00;99.90;;;;;;4959144;28;19929;-67
2024/01/30 10:23:03;;;;;;;;;;;10.00;99.90;;;;;;4952543;28;19956;-67
2024/01/30 10:25:32;;;;;;;;;;;10.10;99.90;;;;;;4960518;28;19932;-67
2024/01/30 10:27:58;;;;;;;;;;;10.20;99.90;;;;;;4933660;28;19932;-67
2024/01/30 10:30:24;;;;;;;;;;;10.20;99.90;;;;;;4960988;28;20534;-67
2024/01/30 10:32:51;;;;;;;;;;;10.20;99.90;;;;;;4934313;28;19925;-66
2024/01/30 10:35:17;;;;;;;;;;;10.30;99.90;;;;;;4958303;28;19933;-67
2024/01/30 10:37:43;;;;;;;;;;;10.20;99.90;;;;;;4928806;28;19937;-67
2024/01/30 10:40:12;;;;;;;;;;;10.30;99.90;;;;;;4960113;28;20405;-65
2024/01/30 10:42:42;;;;;;;;;;;10.30;99.90;;;;;;4920947;28;19940;-66
2024/01/30 10:45:08;;;;;;;;;;;10.20;99.90;;;;;;4959448;28;20482;-67
2024/01/30 10:47:38;;;;;;;;;;;10.20;99.90;;;;;;4953300;28;19925;-66
2024/01/30 10:50:04;;;;;;;;;;;10.20;99.90;;;;;;4965273;28;19926;-67
2024/01/30 10:52:31;;;;;;;;;;;10.20;99.90;;;;;;4953257;28;19936;-67
2024/01/30 10:54:58;;;;;;;;;;;10.20;99.90;;;;;;4964738;28;20994;-67
2024/01/30 10:57:25;;;;;;;;;;;10.20;99.90;;;;;;4950418;28;20045;-67
2024/01/30 10:59:53;;;;;;;;;;;10.30;99.90;;;;;;4966618;28;19930;-66
2024/01/30 11:02:20;;;;;;;;;;;10.30;99.90;;;;;;4934258;28;19932;-67
2024/01/30 11:04:46;;;;;;;;;;;10.20;99.90;;;;;;4965889;28;19926;-67
2024/01/30 11:07:16;;;;;;;;;;;10.30;99.90;;;;;;4923902;28;19940;-67
2024/01/30 11:09:48;;;;;;;;;;;10.40;99.90;;;;;;4965531;28;19950;-66
2024/01/30 11:12:14;;;;;;;;;;;10.40;99.90;;;;;;4939517;28;20509;-66
2024/01/30 11:14:40;;;;;;;;;;;10.40;99.90;;;;;;4967854;28;19929;-67
2024/01/30 11:17:06;;;;;;;;;;;10.40;99.90;;;;;;4925133;28;19925;-67
2024/01/30 11:19:33;;;;;;;;;;;10.50;99.90;;;;;;4973538;28;20111;-65
2024/01/30 11:21:59;;;;;;;;;;;10.50;99.90;;;;;;4934529;28;19975;-66
2024/01/30 11:24:26;;;;;;;;;;;10.50;99.90;;;;;;4958309;28;19925;-66
2024/01/30 11:27:02;;;;;;;;;;;10.50;99.90;;;;;;4938762;28;20430;-66
2024/01/30 11:29:28;;;;;;;;;;;10.50;99.90;;;;;;4965668;28;19925;-66
2024/01/30 11:31:55;;;;;;;;;;;10.50;99.90;;;;;;4938604;28;19925;-65
2024/01/30 11:34:22;;;;;;;;;;;10.50;99.90;;;;;;4961254;28;19929;-66
2024/01/30 11:36:52;;;;;;;;;;;10.50;99.90;;;;;;4929353;28;21414;-66
2024/01/30 11:39:19;;;;;;;;;;;10.50;99.90;;;;;;4950906;28;19925;-67
2024/01/30 11:41:45;;;;;;;;;;;10.50;99.90;;;;;;4943832;28;20000;-67
2024/01/30 11:44:11;;;;;;;;;;;10.50;99.90;;;;;;4973819;28;20884;-67
2024/01/30 11:46:37;;;;;;;;;;;10.50;99.90;;;;;;4942044;28;19952;-66
2024/01/30 11:49:03;;;;;;;;;;;10.40;99.90;;;;;;4976904;28;20344;-66
2024/01/30 11:51:31;;;;;;;;;;;10.40;99.90;;;;;;4951129;28;20462;-66
2024/01/30 11:53:57;;;;;;;;;;;10.40;99.90;;;;;;4974691;28;19952;-66
2024/01/30 11:56:23;;;;;;;;;;;10.30;99.90;;;;;;4934066;28;19933;-66
2024/01/30 11:58:49;;;;;;;;;;;10.20;99.90;;;;;;4966075;28;19936;-66
2024/01/30 12:01:16;;;;;;;;;;;10.20;99.90;;;;;;4938167;28;19941;-66
2024/01/30 12:03:43;;;;;;;;;;;10.10;99.90;;;;;;4977026;28;21085;-67
2024/01/30 12:06:08;;;;;;;;;;;10.00;99.90;;;;;;4935110;28;19925;-66
2024/01/30 12:08:34;;;;;;;;;;;9.90;99.90;;;;;;4963962;28;20408;-66
2024/01/30 12:11:05;;;;;;;;;;;9.90;99.90;;;;;;4938079;28;19962;-64
2024/01/30 12:13:31;;;;;;;;;;;9.80;99.90;;;;;;4966879;28;19929;-65
2024/01/30 12:15:57;;;;;;;;;;;9.80;99.90;;;;;;4938194;28;19929;-68
2024/01/30 12:18:23;;;;;;;;;;;9.80;99.90;;;;;;4967440;28;20003;-66
2024/01/30 12:21:01;;;;;;;;;;;9.80;99.90;;;;;;4930649;28;19925;-65
2024/01/30 12:23:27;;;;;;;;;;;9.80;99.90;;;;;;4981976;28;20808;-66
2024/01/30 12:25:54;;;;;;;;;;;10.00;99.90;;;;;;4929654;28;19929;-66
2024/01/30 12:28:20;;;;;;;;;;;10.20;99.90;;;;;;4984248;28;19925;-66
2024/01/30 12:30:46;;;;;;;;;;;10.30;99.90;;;;;;4939874;28;19946;-66
2024/01/30 12:33:18;;;;;;;;;;;10.30;99.90;;;;;;4948540;28;19932;-65
2024/01/30 12:35:50;;;;;;;;;;;10.20;99.90;;;;;;4945626;28;19929;-65
2024/01/30 12:38:16;;;;;;;;;;;10.10;99.90;;;;;;4952473;28;19925;-65
2024/01/30 12:40:42;;;;;;;;;;;10.10;99.90;;;;;;4953947;28;20025;-65
2024/01/30 12:43:08;;;;;;;;;;;10.10;99.90;;;;;;4939871;28;20414;-66
2024/01/30 12:45:33;;;;;;;;;;;10.00;99.90;;;;;;4962359;28;20447;-65
2024/01/30 12:47:59;;;;;;;;;;;10.00;99.90;;;;;;4929500;28;20475;-66
2024/01/30 12:50:25;;;;;;;;;;;10.00;99.90;;;;;;4963284;28;19926;-65
2024/01/30 12:52:51;;;;;;;;;;;10.00;99.90;;;;;;4955034;28;20158;-66
2024/01/30 12:55:17;;;;;;;;;;;10.00;99.90;;;;;;4962808;28;19934;-65
2024/01/30 12:57:43;;;;;;;;;;;9.90;99.90;;;;;;4885564;28;20013;-66
2024/01/30 13:00:09;;;;;;;;;;;9.90;99.90;;;;;;4940158;28;19926;-66
2024/01/30 13:02:36;;;;;;;;;;;9.80;99.90;;;;;;4903804;28;19932;-66
2024/01/30 13:05:04;;;;;;;;;;;9.80;99.90;;;;;;4957777;28;19926;-66
2024/01/30 13:07:30;;;;;;;;;;;9.80;99.90;;;;;;4939555;28;20344;-65
2024/01/30 13:10:01;;;;;;;;;;;9.70;99.90;;;;;;4963016;28;19925;-68
2024/01/30 13:12:28;;;;;;;;;;;9.70;99.90;;;;;;4951549;28;19936;-65
2024/01/30 13:14:54;;;;;;;;;;;9.70;99.90;;;;;;4963959;28;19930;-65
2024/01/30 13:17:20;;;;;;;;;;;9.70;99.90;;;;;;4932655;28;19929;-65
2024/01/30 13:19:46;;;;;;;;;;;9.70;99.90;;;;;;4942800;28;19926;-67
2024/01/30 13:22:12;;;;;;;;;;;9.70;99.90;;;;;;4925887;28;19932;-66
2024/01/30 13:24:38;;;;;;;;;;;9.70;99.90;;;;;;4947170;28;20001;-67
2024/01/30 13:27:06;;;;;;;;;;;9.80;99.90;;;;;;4910857;28;19936;-67
2024/01/30 13:29:31;;;;;;;;;;;9.80;99.90;;;;;;4942666;28;19926;-65
2024/01/30 13:31:57;;;;;;;;;;;9.80;99.90;;;;;;4926396;28;21283;-66
2024/01/30 13:34:23;;;;;;;;;;;9.80;99.90;;;;;;4948147;28;19926;-66
2024/01/30 13:36:49;;;;;;;;;;;9.80;99.90;;;;;;4911135;28;20830;-66
2024/01/30 13:39:15;;;;;;;;;;;9.80;99.90;;;;;;4915760;28;19926;-65
2024/01/30 13:41:42;;;;;;;;;;;9.70;99.90;;;;;;4927240;28;19932;-68
2024/01/30 13:44:08;;;;;;;;;;;9.70;99.90;;;;;;4966529;28;19929;-67
2024/01/30 13:46:34;;;;;;;;;;;9.70;99.90;;;;;;4931589;28;19925;-68
2024/01/30 13:49:00;;;;;;;;;;;9.60;99.90;;;;;;4952946;28;19926;-67
2024/01/30 13:51:26;;;;;;;;;;;9.60;99.90;;;;;;4918222;28;19936;-66
2024/01/30 13:53:52;;;;;;;;;;;9.60;99.90;;;;;;4955617;28;20525;-65
2024/01/30 13:56:21;;;;;;;;;;;9.60;99.90;;;;;;4916593;28;19941;-67
2024/01/30 13:58:50;;;;;;;;;;;9.60;99.90;;;;;;4955196;28;20404;-66
2024/01/30 14:01:16;;;;;;;;;;;9.50;99.90;;;;;;4933687;28;19925;-66
2024/01/30 14:03:42;;;;;;;;;;;9.50;99.90;;;;;;4970785;28;19926;-65
2024/01/30 14:06:08;;;;;;;;;;;9.50;99.90;;;;;;4920788;28;20061;-64
2024/01/30 14:08:34;;;;;;;;;;;9.40;99.90;;;;;;4933717;28;19929;-65
2024/01/30 14:11:00;;;;;;;;;;;9.40;99.90;;;;;;4912266;28;19972;-66
2024/01/30 14:13:26;;;;;;;;;;;9.40;99.90;;;;;;4958599;28;20842;-66
2024/01/30 14:15:52;;;;;;;;;;;9.30;99.90;;;;;;4911127;28;20073;-66
2024/01/30 14:18:18;;;;;;;;;;;9.30;99.90;;;;;;4958944;28;19974;-66
2024/01/30 14:20:44;;;;;;;;;;;9.20;99.90;;;;;;4922605;28;19926;-67
2024/01/30 14:23:10;;;;;;;;;;;9.20;99.90;;;;;;4953152;28;19945;-66